Time;durP1;ratioP1;P1;durP2;ratioP2;P2;SDS_P1;SDS_P2;PMS_P1;PMS_P2;Temp;Humidity;BMP_temperature;BMP_pressure;BME280_temperature;BME280_humidity;BME280_pressure;Samples;Min_cycle;Max_cycle;Signal;HPM_P1;HPM_P2
2022/04/29 00:02:09;;;;;;;20.02;11.93;;;308.10;2304.00;;;;;;4956783;28;20029;-84
2022/04/29 00:04:36;;;;;;;21.38;11.63;;;308.10;2304.00;;;;;;4953775;28;20433;-84
2022/04/29 00:07:02;;;;;;;16.77;11.00;;;332.80;2329.60;;;;;;4956790;28;20031;-83
2022/04/29 00:09:28;;;;;;;20.25;10.68;;;332.80;2329.60;;;;;;4956882;28;20027;-84
2022/04/29 00:11:54;;;;;;;21.75;10.68;;;332.80;2329.60;;;;;;4956730;28;20023;-84
2022/04/29 00:14:20;;;;;;;16.10;11.65;;;308.10;2304.00;;;;;;4973940;28;20027;-84
2022/04/29 00:16:47;;;;;;;17.48;11.95;;;332.90;2329.60;;;;;;4956543;28;20459;-84
2022/04/29 00:19:13;;;;;;;22.80;12.45;;;332.80;2329.60;;;;;;4956271;28;20054;-84
2022/04/29 00:21:41;;;;;;;24.30;13.02;;;332.80;2329.60;;;;;;4956785;28;20472;-84
2022/04/29 00:24:09;;;;;;;18.95;11.80;;;332.90;2329.60;;;;;;4973651;28;20078;-84
2022/04/29 00:26:37;;;;;;;15.60;11.48;;;332.90;2329.60;;;;;;4971216;28;20026;-84
2022/04/29 00:29:04;;;;;;;19.67;12.55;;;332.90;2329.60;;;;;;4973661;28;20034;-84
2022/04/29 00:31:30;;;;;;;18.95;13.27;;;332.80;2329.60;;;;;;4955791;28;20040;-84
2022/04/29 00:33:57;;;;;;;19.20;12.90;;;308.10;2304.00;;;;;;4970204;28;20026;-84
2022/04/29 00:36:23;;;;;;;25.83;11.95;;;308.00;2304.00;;;;;;4959239;28;20480;-83
2022/04/29 00:38:49;;;;;;;17.63;11.98;;;307.90;2304.00;;;;;;4960261;28;20033;-84
2022/04/29 00:41:22;;;;;;;21.38;14.35;;;307.80;2304.00;;;;;;4959409;28;20057;-84
2022/04/29 00:44:17;;;;;;;21.55;14.10;;;307.70;2304.00;;;;;;4959526;28;20054;-84
2022/04/29 00:46:44;;;;;;;21.92;13.95;;;307.60;2304.00;;;;;;4959827;28;20063;-84
2022/04/29 00:49:12;;;;;;;23.90;13.48;;;307.60;2304.00;;;;;;4959578;28;20027;-84
2022/04/29 00:51:40;;;;;;;19.73;13.93;;;307.70;2304.00;;;;;;4973524;28;20049;-84
2022/04/29 00:54:09;;;;;;;22.73;14.57;;;307.70;2304.00;;;;;;4959467;28;20022;-84
2022/04/29 00:56:38;;;;;;;25.63;15.38;;;307.70;2304.00;;;;;;4959487;28;20046;-83
2022/04/29 00:59:16;;;;;;;24.88;14.02;;;307.80;2304.00;;;;;;4959252;28;20093;-84
2022/04/29 01:01:44;;;;;;;22.90;14.45;;;307.80;2304.00;;;;;;4957329;28;20023;-84
2022/04/29 01:04:14;;;;;;;20.83;13.93;;;307.80;2304.00;;;;;;4959811;28;20034;-83
2022/04/29 01:06:39;;;;;;;25.42;14.98;;;307.80;2304.00;;;;;;4972792;28;20046;-84
2022/04/29 01:09:05;;;;;;;21.08;14.05;;;307.80;2304.00;;;;;;4959384;28;20019;-84
2022/04/29 01:11:32;;;;;;;21.42;14.07;;;307.80;2304.00;;;;;;4959197;28;20039;-84
2022/04/29 01:13:58;;;;;;;20.70;13.57;;;307.80;2304.00;;;;;;4973920;28;20023;-83
2022/04/29 01:16:23;;;;;;;21.02;14.23;;;307.80;2304.00;;;;;;4976157;28;20117;-84
2022/04/29 01:18:53;;;;;;;25.70;15.15;;;307.80;2304.00;;;;;;4976631;28;20019;-84
2022/04/29 01:21:19;;;;;;;25.65;15.85;;;307.80;2304.00;;;;;;4956665;28;20544;-84
2022/04/29 01:23:45;;;;;;;19.55;13.73;;;307.80;2304.00;;;;;;4958835;28;20070;-84
2022/04/29 01:26:15;;;;;;;22.05;15.75;;;307.80;2304.00;;;;;;4958681;28;20047;-84
2022/04/29 01:28:44;;;;;;;25.77;16.35;;;307.80;2304.00;;;;;;4948913;28;20114;-84
2022/04/29 01:31:13;;;;;;;25.40;16.95;;;307.80;2304.00;;;;;;4959093;28;20027;-83
2022/04/29 01:33:46;;;;;;;27.02;16.95;;;307.70;2304.00;;;;;;4956566;28;20019;-84
2022/04/29 01:36:11;;;;;;;24.90;15.57;;;307.60;2304.00;;;;;;4958831;28;20022;-84
2022/04/29 01:38:37;;;;;;;24.80;15.93;;;307.60;2304.00;;;;;;4958950;28;20019;-85
2022/04/29 01:41:05;;;;;;;22.83;16.17;;;307.50;2304.00;;;;;;4958239;28;20110;-82
2022/04/29 01:43:31;;;;;;;27.85;16.80;;;307.30;2304.00;;;;;;4958943;28;20515;-85
2022/04/29 01:45:57;;;;;;;25.73;16.90;;;307.30;2304.00;;;;;;4958262;28;20192;-86
2022/04/29 01:48:24;;;;;;;27.55;16.88;;;307.30;2304.00;;;;;;4958679;28;20176;-84
2022/04/29 01:50:50;;;;;;;26.15;16.52;;;307.20;2304.00;;;;;;4958505;28;20125;-84
2022/04/29 01:53:16;;;;;;;26.42;16.83;;;307.30;2304.00;;;;;;4958474;28;20059;-85
2022/04/29 01:55:42;;;;;;;24.13;15.75;;;307.30;2304.00;;;;;;4959080;28;20027;-84
2022/04/29 01:58:08;;;;;;;26.08;16.80;;;307.30;2304.00;;;;;;4958441;28;20022;-84
2022/04/29 02:00:34;;;;;;;28.13;17.38;;;307.30;2304.00;;;;;;4958697;28;20054;-84
2022/04/29 02:02:59;;;;;;;24.30;16.30;;;307.30;2304.00;;;;;;4958778;28;20070;-85
2022/04/29 02:05:25;;;;;;;26.30;17.15;;;307.30;2304.00;;;;;;4958258;28;20396;-85
2022/04/29 02:07:51;;;;;;;24.98;16.05;;;282.50;2278.40;;;;;;4958321;28;20035;-86
2022/04/29 02:10:17;;;;;;;22.92;15.13;;;282.50;2278.40;;;;;;4975825;28;20022;-85
2022/04/29 02:12:43;;;;;;;27.48;15.25;;;282.50;2278.40;;;;;;4958179;28;20057;-85
2022/04/29 02:15:09;;;;;;;26.92;18.23;;;282.50;2278.40;;;;;;4975300;28;20023;-85
2022/04/29 02:17:35;;;;;;;25.30;15.88;;;282.50;2278.40;;;;;;4957886;28;20468;-85
2022/04/29 02:20:01;;;;;;;27.17;17.23;;;282.40;2278.40;;;;;;4958332;28;20038;-82
2022/04/29 02:22:27;;;;;;;25.73;16.38;;;282.40;2278.40;;;;;;4958164;28;20026;-85
2022/04/29 02:24:53;;;;;;;25.10;16.52;;;282.50;2278.40;;;;;;4957653;28;20026;-84
2022/04/29 02:27:19;;;;;;;28.60;15.90;;;282.50;2278.40;;;;;;4957921;28;20035;-84
2022/04/29 02:29:44;;;;;;;26.52;15.95;;;282.40;2278.40;;;;;;4957859;28;20030;-84
2022/04/29 02:32:10;;;;;;;;;;;282.50;2278.40;;;;;;4958452;28;20078;-84
2022/04/29 02:34:36;;;;;;;24.02;13.93;;;282.50;2278.40;;;;;;4974509;28;20075;-84
2022/04/29 02:37:03;;;;;;;24.38;14.88;;;307.20;2304.00;;;;;;4958067;28;20074;-83
2022/04/29 02:39:29;;;;;;;27.30;15.23;;;307.40;2304.00;;;;;;4957725;28;20027;-83
2022/04/29 02:41:55;;;;;;;20.30;13.13;;;307.30;2304.00;;;;;;4957532;28;20027;-84
2022/04/29 02:44:20;;;;;;;21.60;14.02;;;307.40;2304.00;;;;;;4957831;28;20033;-83
2022/04/29 02:49:31;;;;;;;22.85;13.18;;;307.40;2304.00;;;;;;4973960;28;20105;-83
2022/04/29 02:51:56;;;;;;;19.23;12.63;;;307.30;2304.00;;;;;;4957515;28;20130;-83
2022/04/29 02:54:23;;;;;;;20.88;12.32;;;307.20;2304.00;;;;;;4957885;28;20038;-83
2022/04/29 02:56:52;;;;;;;19.58;12.80;;;307.20;2304.00;;;;;;4956740;28;20026;-84
2022/04/29 02:59:18;;;;;;;17.17;11.60;;;307.30;2304.00;;;;;;4957233;28;20050;-83
2022/04/29 03:01:45;;;;;;;19.15;11.75;;;307.20;2304.00;;;;;;4957455;28;20061;-84
2022/04/29 03:04:11;;;;;;;17.13;11.18;;;307.40;2304.00;;;;;;4957326;28;20027;-83
2022/04/29 03:06:36;;;;;;;17.70;11.63;;;307.20;2304.00;;;;;;4956478;28;20046;-84
2022/04/29 03:09:02;;;;;;;19.17;11.10;;;307.20;2304.00;;;;;;4971820;28;20023;-84
2022/04/29 03:11:28;;;;;;;16.92;11.10;;;307.20;2304.00;;;;;;4974645;28;20436;-84
2022/04/29 03:13:54;;;;;;;17.55;11.40;;;307.20;2304.00;;;;;;4955522;28;20035;-83
2022/04/29 03:16:19;;;;;;;21.52;12.65;;;307.20;2304.00;;;;;;4957083;28;20027;-84
2022/04/29 03:18:45;;;;;;;17.48;11.35;;;307.30;2304.00;;;;;;4954814;28;20054;-84
2022/04/29 03:21:11;;;;;;;21.23;13.15;;;307.30;2304.00;;;;;;4956951;28;20511;-83
2022/04/29 03:23:37;;;;;;;19.80;11.68;;;307.30;2304.00;;;;;;4956414;28;20038;-84
2022/04/29 03:26:06;;;;;;;24.05;13.60;;;307.30;2304.00;;;;;;4954419;28;20079;-83
2022/04/29 03:28:32;;;;;;;19.55;13.30;;;307.40;2304.00;;;;;;4955413;28;20023;-83
2022/04/29 03:30:59;;;;;;;20.70;12.85;;;307.40;2304.00;;;;;;4956018;28;20062;-84
2022/04/29 03:33:25;;;;;;;19.67;13.48;;;282.50;2278.40;;;;;;4967950;28;20473;-84
2022/04/29 03:35:50;;;;;;;23.42;14.60;;;307.40;2304.00;;;;;;4956672;28;20033;-83
2022/04/29 03:38:16;;;;;;;;;;;307.40;2304.00;;;;;;4956402;28;20119;-83
2022/04/29 03:40:42;;;;;;;23.38;14.50;;;307.30;2304.00;;;;;;4956768;28;20359;-84
2022/04/29 03:43:08;;;;;;;20.88;13.52;;;307.20;2304.00;;;;;;4954833;28;20033;-83
2022/04/29 03:45:34;;;;;;;24.92;14.55;;;307.20;2304.00;;;;;;4953702;29;20024;-83
2022/04/29 03:48:00;;;;;;;19.33;13.38;;;307.30;2304.00;;;;;;4956439;28;20041;-84
2022/04/29 03:50:28;;;;;;;20.55;13.02;;;307.30;2304.00;;;;;;4954077;28;20027;-83
2022/04/29 03:52:55;;;;;;;20.05;13.57;;;307.20;2304.00;;;;;;4957098;28;20076;-83
2022/04/29 03:55:23;;;;;;;19.40;13.45;;;307.20;2304.00;;;;;;4956893;28;20053;-83
2022/04/29 03:57:49;;;;;;;18.45;13.15;;;307.30;2304.00;;;;;;4956431;28;20027;-83
2022/04/29 04:00:16;;;;;;;20.38;13.88;;;307.30;2304.00;;;;;;4955109;28;20047;-83
2022/04/29 04:02:42;;;;;;;22.45;13.95;;;307.30;2304.00;;;;;;4956464;28;20077;-83
2022/04/29 04:05:09;;;;;;;22.38;13.30;;;307.30;2304.00;;;;;;4954653;28;20058;-84
2022/04/29 04:07:35;;;;;;;24.02;15.20;;;307.40;2304.00;;;;;;4956694;28;20061;-83
2022/04/29 04:10:01;;;;;;;18.70;12.57;;;307.30;2304.00;;;;;;4959451;28;20030;-84
2022/04/29 04:12:36;;;;;;;20.33;13.18;;;307.30;2304.00;;;;;;4958227;28;20050;-84
2022/04/29 04:15:02;;;;;;;18.65;12.63;;;307.40;2304.00;;;;;;4960548;28;20461;-83
2022/04/29 04:17:27;;;;;;;22.27;13.10;;;307.50;2304.00;;;;;;4958398;28;20050;-84
2022/04/29 04:19:53;;;;;;;;;;;307.50;2304.00;;;;;;4958895;28;20074;-83
2022/04/29 04:22:19;;;;;;;24.33;11.57;;;307.60;2304.00;;;;;;4959820;28;19997;-84
2022/04/29 04:24:44;;;;;;;;;;;307.60;2304.00;;;;;;4952112;29;20026;-82
2022/04/29 04:27:10;;;;;;;20.08;12.55;;;307.60;2304.00;;;;;;4955305;28;19929;-84
2022/04/29 04:29:35;;;;;;;24.70;14.73;;;307.60;2304.00;;;;;;4957760;28;20043;-83
2022/04/29 04:32:01;;;;;;;24.83;16.23;;;307.50;2304.00;;;;;;4960440;28;20030;-83
2022/04/29 04:37:11;;;;;;;26.80;15.50;;;307.60;2304.00;;;;;;4975386;28;20034;-83
2022/04/29 04:39:38;;;;;;;27.83;16.95;;;307.50;2304.00;;;;;;4960208;28;20018;-82
2022/04/29 04:42:06;;;;;;;22.20;15.35;;;307.50;2304.00;;;;;;4959426;28;20023;-82
2022/04/29 04:44:32;;;;;;;22.90;15.82;;;307.60;2304.00;;;;;;4957932;28;20027;-83
2022/04/29 04:46:57;;;;;;;24.83;15.45;;;307.60;2304.00;;;;;;4958858;28;20043;-83
2022/04/29 04:49:23;;;;;;;;;;;307.60;2304.00;;;;;;4960274;28;20106;-82
2022/04/29 04:51:48;;;;;;;22.60;15.02;;;307.70;2304.00;;;;;;4956234;28;20349;-82
2022/04/29 04:54:14;;;;;;;21.35;15.32;;;307.70;2304.00;;;;;;4959184;28;20073;-82
2022/04/29 04:56:40;;;;;;;24.33;16.08;;;307.70;2304.00;;;;;;4976628;28;20082;-84
2022/04/29 04:59:06;;;;;;;24.20;16.27;;;307.70;2304.00;;;;;;4959254;28;20497;-85
2022/04/29 05:01:32;;;;;;;24.42;15.95;;;307.80;2304.00;;;;;;4957852;28;20051;-85
2022/04/29 05:03:57;;;;;;;22.63;15.95;;;307.80;2304.00;;;;;;4959268;28;20018;-86
2022/04/29 05:06:23;;;;;;;28.90;16.95;;;307.90;2304.00;;;;;;4976530;28;20042;-85
2022/04/29 05:08:49;;;;;;;28.67;15.07;;;307.90;2304.00;;;;;;4959463;28;20023;-85
2022/04/29 05:11:14;;;;;;;;;;;308.00;2304.00;;;;;;4977258;28;20027;-85
2022/04/29 05:13:40;;;;;;;24.67;15.95;;;308.00;2304.00;;;;;;4959193;28;19917;-83
2022/04/29 05:16:06;;;;;;;25.90;15.38;;;308.00;2304.00;;;;;;4959253;28;20177;-84
2022/04/29 05:18:31;;;;;;;22.98;15.43;;;308.00;2304.00;;;;;;4959485;28;20568;-84
2022/04/29 05:20:57;;;;;;;26.77;16.25;;;308.10;2304.00;;;;;;4955443;28;20027;-82
2022/04/29 05:23:23;;;;;;;24.80;15.90;;;332.80;2329.60;;;;;;4958611;28;20110;-85
2022/04/29 05:25:49;;;;;;;25.58;16.42;;;332.90;2329.60;;;;;;4976466;28;20055;-83
2022/04/29 05:28:14;;;;;;;25.92;17.48;;;332.90;2329.60;;;;;;4975473;28;20030;-81
2022/04/29 05:30:40;;;;;;;30.45;18.92;;;333.00;2329.60;;;;;;4975991;28;20532;-82
2022/04/29 05:33:07;;;;;;;26.17;17.77;;;332.90;2329.60;;;;;;4975994;28;20019;-78
2022/04/29 05:35:35;;;;;;;28.27;19.02;;;333.00;2329.60;;;;;;4975151;28;20023;-80
2022/04/29 05:38:01;;;;;;;27.95;18.08;;;332.90;2329.60;;;;;;4974730;28;20548;-81
2022/04/29 05:43:11;;;;;;;31.35;19.75;;;333.00;2329.60;;;;;;4974258;28;20122;-77
2022/04/29 05:45:37;;;;;;;27.73;19.15;;;332.90;2329.60;;;;;;4975207;28;20027;-79
2022/04/29 05:48:03;;;;;;;28.00;19.17;;;333.00;2329.60;;;;;;4975461;28;20369;-77
2022/04/29 05:50:29;;;;;;;27.85;18.45;;;333.10;2329.60;;;;;;4975923;28;20019;-80
2022/04/29 05:52:54;;;;;;;26.70;17.95;;;333.10;2329.60;;;;;;4958689;28;20037;-81
2022/04/29 05:55:22;;;;;;;28.00;17.98;;;333.20;2329.60;;;;;;4957873;28;20125;-83
2022/04/29 05:57:48;;;;;;;28.10;18.42;;;333.30;2329.60;;;;;;4958856;28;20059;-80
2022/04/29 06:00:15;;;;;;;25.88;18.00;;;333.30;2329.60;;;;;;4957928;28;20058;-77
2022/04/29 06:02:42;;;;;;;29.08;17.00;;;333.40;2329.60;;;;;;4974722;28;20099;-79
2022/04/29 06:05:08;;;;;;;26.80;17.67;;;333.50;2329.60;;;;;;4974952;28;20473;-78
2022/04/29 06:07:34;;;;;;;24.63;17.30;;;333.70;2329.60;;;;;;4956243;28;20071;-83
2022/04/29 06:10:00;;;;;;;23.63;16.73;;;333.70;2329.60;;;;;;4954386;29;20069;-77
2022/04/29 06:12:26;;;;;;;25.00;16.98;;;333.70;2329.60;;;;;;4968377;28;20061;-90
2022/04/29 06:14:51;;;;;;;29.02;17.77;;;358.40;2329.60;;;;;;4958599;28;20030;-81
2022/04/29 06:17:18;;;;;;;23.13;15.93;;;358.50;2329.60;;;;;;4975505;28;20023;-80
2022/04/29 06:19:44;;;;;;;23.17;16.65;;;358.60;2329.60;;;;;;4974405;28;20524;-77
2022/04/29 06:22:09;;;;;;;24.17;17.55;;;358.70;2329.60;;;;;;4975248;28;20030;-77
2022/04/29 06:24:35;;;;;;;24.45;16.90;;;358.80;2329.60;;;;;;4975360;28;20109;-82
2022/04/29 06:27:04;;;;;;;22.70;15.30;;;358.80;2329.60;;;;;;4958246;28;20045;-81
2022/04/29 06:29:30;;;;;;;20.92;15.63;;;358.90;2329.60;;;;;;4957819;28;20042;-81
2022/04/29 06:31:56;;;;;;;23.58;15.82;;;359.00;2329.60;;;;;;4974692;28;20030;-84
2022/04/29 06:34:21;;;;;;;24.05;15.50;;;359.00;2329.60;;;;;;4957421;28;20074;-84
2022/04/29 06:36:47;;;;;;;21.35;15.27;;;359.00;2329.60;;;;;;4957486;28;20077;-78
2022/04/29 06:39:13;;;;;;;25.75;16.35;;;359.10;2329.60;;;;;;4974945;28;20384;-77
2022/04/29 06:41:40;;;;;;;21.15;14.88;;;359.10;2329.60;;;;;;4974719;28;20031;-78
2022/04/29 06:44:06;;;;;;;21.08;13.10;;;359.30;2329.60;;;;;;4957353;28;20025;-81
2022/04/29 06:46:32;;;;;;;17.55;12.80;;;384.40;2329.60;;;;;;4954066;29;20130;-79
2022/04/29 06:48:58;;;;;;;26.67;13.70;;;384.20;2329.60;;;;;;4970721;28;20030;-77
2022/04/29 06:51:25;;;;;;;18.05;12.75;;;384.20;2329.60;;;;;;4956896;28;20073;-77
2022/04/29 06:53:51;;;;;;;18.13;13.93;;;384.30;2329.60;;;;;;4974242;28;20030;-77
2022/04/29 06:56:17;;;;;;;16.40;12.73;;;384.40;2329.60;;;;;;4974147;28;20023;-76
2022/04/29 06:58:43;;;;;;;17.65;11.93;;;384.50;2329.60;;;;;;4956537;28;20393;-81
2022/04/29 07:01:09;;;;;;;21.75;12.80;;;384.60;2329.60;;;;;;4974425;28;20031;-75
2022/04/29 07:03:36;;;;;;;18.13;11.00;;;384.70;2329.60;;;;;;4974110;28;20033;-76
2022/04/29 07:06:02;;;;;;;17.08;11.05;;;384.90;2329.60;;;;;;4956558;28;20053;-77
2022/04/29 07:08:31;;;;;;;15.85;11.65;;;384.90;2329.60;;;;;;4973896;28;20157;-78
2022/04/29 07:10:57;;;;;;;17.42;11.73;;;384.90;2329.60;;;;;;4973739;28;20033;-78
2022/04/29 07:13:23;;;;;;;20.73;11.40;;;384.70;2329.60;;;;;;4956176;28;20034;-80
2022/04/29 07:15:49;;;;;;;22.60;12.80;;;384.60;2329.60;;;;;;4956484;28;20019;-81
2022/04/29 07:18:16;;;;;;;24.42;13.95;;;384.70;2329.60;;;;;;4954561;28;20030;-80
2022/04/29 07:20:42;;;;;;;21.30;13.23;;;384.70;2329.60;;;;;;4973183;28;20476;-77
2022/04/29 07:23:08;;;;;;;17.33;12.77;;;409.60;2355.20;;;;;;4973173;28;20027;-76
2022/04/29 07:25:34;;;;;;;20.17;13.30;;;409.80;2355.20;;;;;;4973320;28;20067;-82
2022/04/29 07:28:00;;;;;;;21.52;14.68;;;410.00;2355.20;;;;;;4957743;28;20035;-80
2022/04/29 07:30:26;;;;;;;22.50;14.43;;;410.30;2355.20;;;;;;4958758;28;20086;-79
2022/04/29 07:32:53;;;;;;;25.73;15.05;;;410.40;2355.20;;;;;;4953054;28;20038;-80
2022/04/29 07:43:32;;;;;;;23.55;17.15;;;435.20;2355.20;;;;;;4973119;28;20097;-80
2022/04/29 07:45:59;;;;;;;21.35;15.95;;;410.50;2355.20;;;;;;4956499;28;20408;-81
2022/04/29 07:48:25;;;;;;;20.00;14.00;;;410.40;2355.20;;;;;;4955617;28;20027;-78
2022/04/29 07:50:51;;;;;;;19.17;14.52;;;410.20;2355.20;;;;;;4949280;28;20035;-78
2022/04/29 07:53:17;;;;;;;17.88;14.10;;;410.20;2355.20;;;;;;4955959;28;20027;-79
2022/04/29 07:55:43;;;;;;;21.30;13.63;;;410.20;2355.20;;;;;;4955820;28;20084;-80
2022/04/29 07:58:09;;;;;;;21.95;13.45;;;410.20;2355.20;;;;;;4956237;28;20037;-80
2022/04/29 08:00:37;;;;;;;19.67;13.77;;;410.20;2355.20;;;;;;4955964;28;20106;-82
2022/04/29 08:03:03;;;;;;;17.83;12.00;;;410.40;2355.20;;;;;;4956445;28;20479;-80
2022/04/29 08:05:29;;;;;;;15.50;11.82;;;410.40;2355.20;;;;;;4955977;28;20034;-81
2022/04/29 08:07:59;;;;;;;18.23;12.50;;;410.40;2355.20;;;;;;4956580;28;20034;-81
2022/04/29 08:10:29;;;;;;;18.23;13.02;;;410.50;2355.20;;;;;;4956323;28;20034;-81
2022/04/29 08:12:57;;;;;;;16.05;12.55;;;435.20;2355.20;;;;;;4973326;28;20494;-79
2022/04/29 08:15:25;;;;;;;18.73;13.48;;;435.30;2355.20;;;;;;4973254;28;20034;-78
2022/04/29 08:17:50;;;;;;;15.13;11.57;;;435.50;2355.20;;;;;;4973121;28;20485;-78
2022/04/29 08:20:16;;;;;;;17.48;12.52;;;435.70;2355.20;;;;;;4973232;28;20031;-78
2022/04/29 08:22:42;;;;;;;17.08;12.63;;;435.60;2355.20;;;;;;4955814;28;20027;-78
2022/04/29 08:25:08;;;;;;;21.52;16.02;;;435.70;2355.20;;;;;;4955694;28;20030;-78
2022/04/29 08:27:34;;;;;;;16.15;11.85;;;435.90;2355.20;;;;;;4972963;28;20041;-77
2022/04/29 08:30:00;;;;;;;20.70;12.80;;;435.80;2355.20;;;;;;4955801;28;20027;-79
2022/04/29 08:32:26;;;;;;;17.23;13.18;;;435.90;2355.20;;;;;;4972774;28;20027;-77
2022/04/29 08:34:52;;;;;;;16.75;11.45;;;436.00;2355.20;;;;;;4956031;28;20082;-80
2022/04/29 08:37:18;;;;;;;30.33;19.33;;;460.80;2380.80;;;;;;4955700;28;20023;-78
2022/04/29 08:39:44;;;;;;;14.52;10.30;;;460.90;2380.80;;;;;;4955877;28;20046;-81
2022/04/29 08:42:11;;;;;;;14.32;11.35;;;460.90;2380.80;;;;;;4973369;28;20114;-81
2022/04/29 08:44:41;;;;;;;13.63;10.25;;;460.90;2380.80;;;;;;4956050;28;20031;-82
2022/04/29 08:47:08;;;;;;;24.35;13.77;;;461.00;2380.80;;;;;;4973264;28;20073;-81
2022/04/29 08:49:35;;;;;;;24.77;13.95;;;460.90;2380.80;;;;;;4956038;28;20019;-82
2022/04/29 08:52:01;;;;;;;27.50;16.50;;;460.90;2380.80;;;;;;4955662;28;20378;-81
2022/04/29 09:00:04;;;;;;;14.73;10.85;;;461.00;2380.80;;;;;;4976693;28;20085;-82
2022/04/29 09:02:38;;;;;;;21.13;12.88;;;461.10;2380.80;;;;;;4977334;28;20481;-82
2022/04/29 09:05:09;;;;;;;16.77;10.38;;;461.10;2380.80;;;;;;4976644;28;20043;-81
2022/04/29 09:07:55;;;;;;;12.70;10.07;;;461.40;2380.80;;;;;;4959200;28;20034;-80
2022/04/29 09:10:24;;;;;;;12.07;8.82;;;461.50;2380.80;;;;;;4958906;28;20034;-78
2022/04/29 09:12:51;;;;;;;12.82;10.40;;;461.60;2380.80;;;;;;4958727;28;20060;-80
2022/04/29 09:15:17;;;;;;;13.50;9.98;;;461.50;2380.80;;;;;;4958928;28;20030;-80
2022/04/29 09:17:45;;;;;;;15.45;10.80;;;461.50;2380.80;;;;;;4958691;28;20027;-79
2022/04/29 09:20:19;;;;;;;13.40;9.30;;;461.40;2380.80;;;;;;4958552;28;20027;-77
2022/04/29 09:22:50;;;;;;;16.42;10.82;;;461.50;2380.80;;;;;;4975889;28;20031;-79
2022/04/29 09:25:17;;;;;;;16.38;10.75;;;461.60;2380.80;;;;;;4975960;28;20085;-78
2022/04/29 09:28:00;;;;;;;15.13;10.68;;;486.40;2380.80;;;;;;4958700;28;20046;-79
2022/04/29 09:30:40;;;;;;;14.50;10.38;;;486.50;2380.80;;;;;;4958090;28;20037;-78
2022/04/29 09:33:26;;;;;;;16.10;9.98;;;486.40;2380.80;;;;;;4958470;28;20027;-79
2022/04/29 09:35:53;;;;;;;25.92;12.48;;;486.50;2380.80;;;;;;4958473;28;20114;-79
2022/04/29 09:41:05;;;;;;;14.00;11.02;;;486.60;2380.80;;;;;;4975915;28;20030;-79
2022/04/29 09:43:34;;;;;;;12.98;9.95;;;486.40;2380.80;;;;;;4975750;28;20110;-78
2022/04/29 09:46:12;;;;;;;19.85;9.55;;;461.50;2380.80;;;;;;4957976;28;20038;-79
2022/04/29 09:49:10;;;;;;;13.75;9.63;;;486.40;2380.80;;;;;;4975641;28;20030;-80
2022/04/29 09:51:43;;;;;;;10.35;8.23;;;461.60;2380.80;;;;;;4881811;29;20056;-80
2022/04/29 09:54:10;;;;;;;9.90;7.55;;;461.70;2380.80;;;;;;4881513;29;20029;-79
2022/04/29 09:56:36;;;;;;;13.02;9.07;;;461.60;2278.40;;;;;;4897574;29;20057;-81
2022/04/29 09:59:02;;;;;;;11.10;8.45;;;461.50;2380.80;;;;;;4881350;29;20049;-81
2022/04/29 10:01:29;;;;;;;10.80;8.02;;;486.40;2380.80;;;;;;4881391;29;20044;-79
2022/04/29 10:03:56;;;;;;;11.73;8.65;;;486.70;2355.20;;;;;;4897404;29;20387;-82
2022/04/29 10:06:25;;;;;;;11.35;7.60;;;486.80;2252.80;;;;;;4896294;29;20270;-79
2022/04/29 10:08:52;;;;;;;12.48;8.30;;;486.90;2176.00;;;;;;4896899;29;20476;-76
2022/04/29 10:11:24;;;;;;;11.75;8.55;;;487.30;2201.60;;;;;;4896703;29;20116;-78
2022/04/29 10:13:50;;;;;;;13.20;10.18;;;512.00;2099.20;;;;;;4881215;29;20138;-80
2022/04/29 10:16:18;;;;;;;12.52;10.00;;;487.10;2227.20;;;;;;4880700;29;20065;-76
2022/04/29 10:21:40;;;;;;;14.05;8.90;;;486.70;2329.60;;;;;;4896773;29;20161;-78
2022/04/29 10:24:06;;;;;;;11.45;8.68;;;486.50;2304.00;;;;;;4880900;29;20035;-80
2022/04/29 10:26:32;;;;;;;13.43;9.20;;;486.40;2355.20;;;;;;4915013;28;20035;-79
2022/04/29 10:28:59;;;;;;;9.68;7.00;;;486.80;2329.60;;;;;;4974861;28;20039;-79
2022/04/29 10:31:28;;;;;;;7.47;5.13;;;486.80;2150.40;;;;;;4957497;28;20064;-80
2022/04/29 10:33:54;;;;;;;8.10;5.10;;;486.70;2099.20;;;;;;4974942;28;20018;-79
2022/04/29 10:36:24;;;;;;;8.40;5.10;;;486.80;1996.80;;;;;;4974272;28;20037;-79
2022/04/29 10:39:00;;;;;;;7.70;4.85;;;486.60;1971.20;;;;;;4957522;28;20112;-80
2022/04/29 10:41:26;;;;;;;7.20;4.70;;;486.70;2124.80;;;;;;4974643;28;20023;-79
2022/04/29 10:43:52;;;;;;;6.10;3.75;;;486.70;2073.60;;;;;;4957061;28;20034;-80
2022/04/29 10:46:36;;;;;;;8.20;4.07;;;486.60;2073.60;;;;;;4975228;28;20477;-81
2022/04/29 10:49:27;;;;;;;7.03;5.32;;;486.50;2048.00;;;;;;4957373;28;20473;-78
2022/04/29 10:51:55;;;;;;;7.63;5.97;;;486.40;2099.20;;;;;;4956669;28;20034;-75
2022/04/29 10:54:42;;;;;;;11.30;7.70;;;486.50;2278.40;;;;;;4975110;28;20026;-82
2022/04/29 10:57:12;;;;;;;9.32;6.93;;;486.80;2252.80;;;;;;4958022;28;20030;-82
2022/04/29 10:59:59;;;;;;;6.50;4.13;;;486.90;2227.20;;;;;;4974895;28;20047;-83
2022/04/29 11:02:32;;;;;;;6.65;3.70;;;486.90;2048.00;;;;;;4957928;28;20034;-82
2022/04/29 11:05:03;;;;;;;5.13;4.13;;;486.90;2048.00;;;;;;4955346;28;20029;-82
2022/04/29 11:07:39;;;;;;;9.93;5.63;;;486.90;2022.40;;;;;;4955116;28;20042;-82
2022/04/29 11:10:07;;;;;;;8.77;6.32;;;486.90;2201.60;;;;;;4958020;28;20023;-83
2022/04/29 11:12:39;;;;;;;9.40;7.47;;;487.00;2252.80;;;;;;4958133;28;20038;-82
2022/04/29 11:15:15;;;;;;;9.75;6.38;;;487.10;2176.00;;;;;;4957846;28;20062;-82
2022/04/29 11:17:41;;;;;;;10.23;6.82;;;487.10;2201.60;;;;;;4957304;28;20051;-82
2022/04/29 11:20:14;;;;;;;8.55;5.88;;;487.10;2227.20;;;;;;4974441;28;20030;-81
2022/04/29 11:25:25;;;;;;;11.10;6.57;;;512.00;2099.20;;;;;;4974525;28;20089;-81
2022/04/29 11:27:51;;;;;;;10.35;6.10;;;512.10;2099.20;;;;;;4957534;28;20125;-83
2022/04/29 11:30:18;;;;;;;9.43;5.72;;;512.00;2048.00;;;;;;4957230;28;20035;-84
2022/04/29 11:32:44;;;;;;;9.10;7.00;;;512.00;1971.20;;;;;;4957438;28;20062;-85
2022/04/29 11:35:10;;;;;;;10.95;7.57;;;512.00;2022.40;;;;;;4957368;28;20026;-82
2022/04/29 11:37:36;;;;;;;9.98;6.88;;;512.40;2099.20;;;;;;4957000;28;20491;-80
2022/04/29 11:40:07;;;;;;;10.63;8.00;;;512.80;1920.00;;;;;;4957004;28;20034;-81
2022/04/29 11:42:33;;;;;;;11.48;8.50;;;512.60;2048.00;;;;;;4956545;28;20023;-80
2022/04/29 11:45:10;;;;;;;11.75;7.40;;;512.30;2022.40;;;;;;4956798;28;20023;-81
2022/04/29 11:47:36;;;;;;;11.18;7.93;;;512.20;2022.40;;;;;;4956629;28;20127;-80
2022/04/29 11:50:04;;;;;;;12.30;7.88;;;512.10;1996.80;;;;;;4956390;28;20023;-79
2022/04/29 11:52:31;;;;;;;13.23;8.05;;;512.10;2073.60;;;;;;4973684;28;20081;-79
2022/04/29 11:55:14;;;;;;;10.10;8.23;;;512.20;2048.00;;;;;;4956455;28;20477;-81
2022/04/29 11:57:49;;;;;;;9.60;7.15;;;512.40;2048.00;;;;;;4956732;28;20058;-80
2022/04/29 12:00:25;;;;;;;9.85;7.18;;;512.30;2048.00;;;;;;4955575;28;20051;-79
2022/04/29 12:02:53;;;;;;;9.38;7.10;;;512.10;2048.00;;;;;;4973499;28;20049;-78
2022/04/29 12:05:28;;;;;;;11.55;8.32;;;512.00;2150.40;;;;;;4973609;28;20073;-79
2022/04/29 12:07:59;;;;;;;11.63;8.85;;;512.10;2227.20;;;;;;4955917;28;20038;-79
2022/04/29 12:10:28;;;;;;;10.38;8.00;;;512.10;2124.80;;;;;;4953540;28;20030;-80
2022/04/29 12:13:04;;;;;;;12.30;8.23;;;512.30;2150.40;;;;;;4960463;28;20467;-78
2022/04/29 12:15:41;;;;;;;10.07;8.23;;;487.30;2304.00;;;;;;4942471;29;20028;-82
2022/04/29 12:18:14;;;;;;;12.07;8.35;;;487.30;2304.00;;;;;;4953278;29;20015;-81
2022/04/29 12:20:41;;;;;;;10.07;8.35;;;512.40;2176.00;;;;;;4954288;29;20038;-78
2022/04/29 12:23:11;;;;;;;10.05;8.23;;;512.60;2124.80;;;;;;4937112;29;20086;-81
2022/04/29 12:25:42;;;;;;;12.90;7.30;;;537.90;2022.40;;;;;;4936882;29;20035;-83
2022/04/29 12:28:31;;;;;;;11.43;7.88;;;537.90;2099.20;;;;;;4971381;28;20472;-82
2022/04/29 12:37:09;;;;;;;13.88;7.63;;;538.50;2048.00;;;;;;4977670;28;20038;-79
2022/04/29 12:39:37;;;;;;;9.30;6.82;;;563.50;2124.80;;;;;;4959648;28;20045;-80
2022/04/29 12:42:08;;;;;;;7.47;6.18;;;563.60;1817.60;;;;;;4948922;28;20386;-83
2022/04/29 12:45:05;;;;;;;12.35;7.43;;;563.80;1843.20;;;;;;4938602;29;20068;-82